sensor_id;sensor_type;location;lat;lon;timestamp;P1;durP1;ratioP1;P2;durP2;ratioP2
66087;SDS011;52872;52.994;6.940;2023-02-08T00:00:48;28.88;;;18.90;;
66087;SDS011;52872;52.994;6.940;2023-02-08T00:03:15;29.27;;;18.58;;
66087;SDS011;52872;52.994;6.940;2023-02-08T00:05:43;25.42;;;18.50;;
66087;SDS011;52872;52.994;6.940;2023-02-08T00:08:10;31.00;;;18.90;;
66087;SDS011;52872;52.994;6.940;2023-02-08T00:10:37;29.50;;;17.85;;
66087;SDS011;52872;52.994;6.940;2023-02-08T00:13:05;28.30;;;18.95;;
66087;SDS011;52872;52.994;6.940;2023-02-08T00:15:32;26.02;;;19.15;;
66087;SDS011;52872;52.994;6.940;2023-02-08T00:17:59;24.50;;;17.58;;
66087;SDS011;52872;52.994;6.940;2023-02-08T00:20:26;29.80;;;18.33;;
66087;SDS011;52872;52.994;6.940;2023-02-08T00:22:53;30.58;;;18.30;;
66087;SDS011;52872;52.994;6.940;2023-02-08T00:25:20;28.17;;;17.35;;
66087;SDS011;52872;52.994;6.940;2023-02-08T00:27:47;31.65;;;19.00;;
66087;SDS011;52872;52.994;6.940;2023-02-08T00:30:14;26.67;;;17.65;;
66087;SDS011;52872;52.994;6.940;2023-02-08T00:32:41;27.80;;;18.23;;
66087;SDS011;52872;52.994;6.940;2023-02-08T00:35:08;25.95;;;17.42;;
66087;SDS011;52872;52.994;6.940;2023-02-08T00:37:35;24.70;;;17.40;;
66087;SDS011;52872;52.994;6.940;2023-02-08T00:40:02;25.80;;;18.48;;
66087;SDS011;52872;52.994;6.940;2023-02-08T00:42:31;26.13;;;17.02;;
66087;SDS011;52872;52.994;6.940;2023-02-08T00:44:58;31.75;;;18.63;;
66087;SDS011;52872;52.994;6.940;2023-02-08T00:47:25;24.30;;;17.35;;
66087;SDS011;52872;52.994;6.940;2023-02-08T00:49:52;28.13;;;18.65;;
66087;SDS011;52872;52.994;6.940;2023-02-08T00:52:19;27.27;;;17.98;;
66087;SDS011;52872;52.994;6.940;2023-02-08T00:54:46;26.98;;;18.73;;
66087;SDS011;52872;52.994;6.940;2023-02-08T00:57:14;27.45;;;18.23;;
66087;SDS011;52872;52.994;6.940;2023-02-08T00:59:41;26.70;;;18.77;;
66087;SDS011;52872;52.994;6.940;2023-02-08T01:02:08;26.42;;;17.45;;
66087;SDS011;52872;52.994;6.940;2023-02-08T01:04:36;29.27;;;18.85;;
66087;SDS011;52872;52.994;6.940;2023-02-08T01:07:05;25.45;;;17.38;;
66087;SDS011;52872;52.994;6.940;2023-02-08T01:09:32;30.45;;;17.48;;
66087;SDS011;52872;52.994;6.940;2023-02-08T01:12:00;30.02;;;18.25;;
66087;SDS011;52872;52.994;6.940;2023-02-08T01:14:27;28.70;;;18.70;;
66087;SDS011;52872;52.994;6.940;2023-02-08T01:16:54;24.95;;;17.38;;
66087;SDS011;52872;52.994;6.940;2023-02-08T01:19:22;29.02;;;18.42;;
66087;SDS011;52872;52.994;6.940;2023-02-08T01:21:48;30.10;;;17.98;;
66087;SDS011;52872;52.994;6.940;2023-02-08T01:24:16;26.48;;;17.60;;
66087;SDS011;52872;52.994;6.940;2023-02-08T01:26:43;25.83;;;17.58;;
66087;SDS011;52872;52.994;6.940;2023-02-08T01:29:10;27.45;;;18.33;;
66087;SDS011;52872;52.994;6.940;2023-02-08T01:31:38;28.52;;;17.73;;
66087;SDS011;52872;52.994;6.940;2023-02-08T01:34:06;26.42;;;18.05;;
66087;SDS011;52872;52.994;6.940;2023-02-08T01:36:34;26.50;;;18.15;;
66087;SDS011;52872;52.994;6.940;2023-02-08T01:39:03;24.88;;;17.55;;
66087;SDS011;52872;52.994;6.940;2023-02-08T01:41:33;26.45;;;17.98;;
66087;SDS011;52872;52.994;6.940;2023-02-08T01:46:30;26.83;;;17.60;;
66087;SDS011;52872;52.994;6.940;2023-02-08T01:49:10;28.35;;;18.30;;
66087;SDS011;52872;52.994;6.940;2023-02-08T01:51:49;28.27;;;18.63;;
66087;SDS011;52872;52.994;6.940;2023-02-08T01:54:39;26.42;;;16.67;;
66087;SDS011;52872;52.994;6.940;2023-02-08T01:57:10;30.02;;;18.88;;
66087;SDS011;52872;52.994;6.940;2023-02-08T01:59:40;28.40;;;17.77;;
66087;SDS011;52872;52.994;6.940;2023-02-08T02:02:14;26.92;;;17.90;;
66087;SDS011;52872;52.994;6.940;2023-02-08T02:04:42;31.35;;;19.27;;
66087;SDS011;52872;52.994;6.940;2023-02-08T02:07:10;29.20;;;17.83;;
66087;SDS011;52872;52.994;6.940;2023-02-08T02:09:40;31.27;;;18.95;;
66087;SDS011;52872;52.994;6.940;2023-02-08T02:12:20;30.05;;;18.80;;
66087;SDS011;52872;52.994;6.940;2023-02-08T02:14:49;33.83;;;19.67;;
66087;SDS011;52872;52.994;6.940;2023-02-08T02:17:17;28.25;;;18.85;;
66087;SDS011;52872;52.994;6.940;2023-02-08T02:25:14;39.05;;;21.45;;
66087;SDS011;52872;52.994;6.940;2023-02-08T02:36:27;31.52;;;20.67;;
66087;SDS011;52872;52.994;6.940;2023-02-08T02:47:30;31.95;;;19.40;;
66087;SDS011;52872;52.994;6.940;2023-02-08T02:52:53;32.50;;;20.13;;
66087;SDS011;52872;52.994;6.940;2023-02-08T02:55:29;33.25;;;20.25;;
66087;SDS011;52872;52.994;6.940;2023-02-08T02:58:01;32.95;;;20.52;;
66087;SDS011;52872;52.994;6.940;2023-02-08T03:00:30;34.53;;;19.67;;
66087;SDS011;52872;52.994;6.940;2023-02-08T03:02:59;36.97;;;21.30;;
66087;SDS011;52872;52.994;6.940;2023-02-08T03:05:26;36.05;;;21.15;;
66087;SDS011;52872;52.994;6.940;2023-02-08T03:08:06;35.92;;;21.20;;
66087;SDS011;52872;52.994;6.940;2023-02-08T03:16:15;34.75;;;20.30;;
66087;SDS011;52872;52.994;6.940;2023-02-08T03:24:32;37.78;;;21.92;;
66087;SDS011;52872;52.994;6.940;2023-02-08T03:27:34;34.72;;;22.25;;
66087;SDS011;52872;52.994;6.940;2023-02-08T03:32:42;31.48;;;18.83;;
66087;SDS011;52872;52.994;6.940;2023-02-08T03:35:18;38.20;;;21.05;;
66087;SDS011;52872;52.994;6.940;2023-02-08T03:37:54;30.25;;;18.70;;
66087;SDS011;52872;52.994;6.940;2023-02-08T03:40:23;33.60;;;19.88;;
66087;SDS011;52872;52.994;6.940;2023-02-08T03:42:57;33.80;;;20.95;;
66087;SDS011;52872;52.994;6.940;2023-02-08T03:45:42;37.00;;;20.75;;
66087;SDS011;52872;52.994;6.940;2023-02-08T03:48:18;35.58;;;20.25;;
66087;SDS011;52872;52.994;6.940;2023-02-08T03:50:49;34.78;;;21.08;;
66087;SDS011;52872;52.994;6.940;2023-02-08T03:53:19;32.58;;;19.85;;
66087;SDS011;52872;52.994;6.940;2023-02-08T03:55:50;38.25;;;21.65;;
66087;SDS011;52872;52.994;6.940;2023-02-08T04:01:15;34.85;;;21.73;;
66087;SDS011;52872;52.994;6.940;2023-02-08T04:03:48;34.50;;;20.23;;
66087;SDS011;52872;52.994;6.940;2023-02-08T04:06:20;37.83;;;21.58;;
66087;SDS011;52872;52.994;6.940;2023-02-08T04:08:47;37.97;;;21.92;;
66087;SDS011;52872;52.994;6.940;2023-02-08T04:11:15;40.20;;;22.20;;
66087;SDS011;52872;52.994;6.940;2023-02-08T04:13:42;42.63;;;23.10;;
66087;SDS011;52872;52.994;6.940;2023-02-08T04:16:10;46.53;;;25.20;;
66087;SDS011;52872;52.994;6.940;2023-02-08T04:18:38;41.72;;;23.95;;
66087;SDS011;52872;52.994;6.940;2023-02-08T04:21:05;41.30;;;23.50;;
66087;SDS011;52872;52.994;6.940;2023-02-08T04:23:32;44.20;;;23.38;;
66087;SDS011;52872;52.994;6.940;2023-02-08T04:25:59;41.50;;;23.65;;
66087;SDS011;52872;52.994;6.940;2023-02-08T04:28:26;41.88;;;24.30;;
66087;SDS011;52872;52.994;6.940;2023-02-08T04:30:54;42.13;;;23.45;;
66087;SDS011;52872;52.994;6.940;2023-02-08T04:33:22;44.50;;;24.23;;
66087;SDS011;52872;52.994;6.940;2023-02-08T04:35:49;40.35;;;23.50;;
66087;SDS011;52872;52.994;6.940;2023-02-08T04:38:17;41.58;;;23.20;;
66087;SDS011;52872;52.994;6.940;2023-02-08T04:40:44;45.15;;;24.08;;
66087;SDS011;52872;52.994;6.940;2023-02-08T04:43:11;40.50;;;22.75;;
66087;SDS011;52872;52.994;6.940;2023-02-08T04:45:38;38.35;;;21.73;;
66087;SDS011;52872;52.994;6.940;2023-02-08T04:48:05;40.97;;;23.65;;
66087;SDS011;52872;52.994;6.940;2023-02-08T04:50:33;40.47;;;23.30;;
66087;SDS011;52872;52.994;6.940;2023-02-08T04:53:00;42.55;;;24.00;;
66087;SDS011;52872;52.994;6.940;2023-02-08T04:55:27;40.25;;;22.75;;
66087;SDS011;52872;52.994;6.940;2023-02-08T04:57:54;40.08;;;23.25;;
66087;SDS011;52872;52.994;6.940;2023-02-08T05:00:21;38.42;;;22.85;;
66087;SDS011;52872;52.994;6.940;2023-02-08T05:03:10;37.47;;;22.75;;
66087;SDS011;52872;52.994;6.940;2023-02-08T05:05:35;40.05;;;23.02;;
66087;SDS011;52872;52.994;6.940;2023-02-08T05:08:02;43.70;;;23.77;;
66087;SDS011;52872;52.994;6.940;2023-02-08T05:10:30;42.65;;;24.45;;
66087;SDS011;52872;52.994;6.940;2023-02-08T05:12:57;38.20;;;22.40;;
66087;SDS011;52872;52.994;6.940;2023-02-08T05:15:24;39.13;;;23.23;;
66087;SDS011;52872;52.994;6.940;2023-02-08T05:17:51;46.38;;;23.95;;
66087;SDS011;52872;52.994;6.940;2023-02-08T05:20:19;42.90;;;23.90;;
66087;SDS011;52872;52.994;6.940;2023-02-08T05:22:46;45.10;;;25.33;;
66087;SDS011;52872;52.994;6.940;2023-02-08T05:25:14;43.78;;;24.65;;
66087;SDS011;52872;52.994;6.940;2023-02-08T05:27:40;43.13;;;24.77;;
66087;SDS011;52872;52.994;6.940;2023-02-08T05:30:08;41.10;;;24.15;;
66087;SDS011;52872;52.994;6.940;2023-02-08T05:32:35;44.72;;;24.17;;
66087;SDS011;52872;52.994;6.940;2023-02-08T05:35:02;42.40;;;24.25;;
66087;SDS011;52872;52.994;6.940;2023-02-08T05:37:29;40.58;;;23.65;;
66087;SDS011;52872;52.994;6.940;2023-02-08T05:39:56;40.55;;;22.65;;
66087;SDS011;52872;52.994;6.940;2023-02-08T05:42:23;39.65;;;21.70;;
66087;SDS011;52872;52.994;6.940;2023-02-08T05:44:51;42.22;;;23.20;;
66087;SDS011;52872;52.994;6.940;2023-02-08T05:47:18;41.20;;;22.67;;
66087;SDS011;52872;52.994;6.940;2023-02-08T05:49:45;42.22;;;23.88;;
66087;SDS011;52872;52.994;6.940;2023-02-08T05:52:12;42.72;;;22.92;;
66087;SDS011;52872;52.994;6.940;2023-02-08T05:54:39;40.20;;;24.38;;
66087;SDS011;52872;52.994;6.940;2023-02-08T05:57:05;38.65;;;23.55;;
66087;SDS011;52872;52.994;6.940;2023-02-08T05:59:33;37.17;;;23.13;;
66087;SDS011;52872;52.994;6.940;2023-02-08T06:02:00;41.28;;;23.08;;
66087;SDS011;52872;52.994;6.940;2023-02-08T06:04:27;42.75;;;23.55;;
66087;SDS011;52872;52.994;6.940;2023-02-08T06:06:54;39.05;;;23.85;;
66087;SDS011;52872;52.994;6.940;2023-02-08T06:09:22;39.72;;;23.90;;
66087;SDS011;52872;52.994;6.940;2023-02-08T06:11:49;36.80;;;22.50;;
66087;SDS011;52872;52.994;6.940;2023-02-08T06:14:16;38.15;;;21.35;;
66087;SDS011;52872;52.994;6.940;2023-02-08T06:16:43;40.45;;;22.50;;
66087;SDS011;52872;52.994;6.940;2023-02-08T06:19:09;38.00;;;22.20;;
66087;SDS011;52872;52.994;6.940;2023-02-08T06:21:36;41.33;;;22.50;;
66087;SDS011;52872;52.994;6.940;2023-02-08T06:24:04;37.67;;;21.10;;
66087;SDS011;52872;52.994;6.940;2023-02-08T06:26:32;44.80;;;22.98;;
66087;SDS011;52872;52.994;6.940;2023-02-08T06:28:59;42.88;;;22.42;;
66087;SDS011;52872;52.994;6.940;2023-02-08T06:31:26;43.53;;;24.75;;
66087;SDS011;52872;52.994;6.940;2023-02-08T06:33:53;38.88;;;22.55;;
66087;SDS011;52872;52.994;6.940;2023-02-08T06:36:20;39.42;;;22.27;;
66087;SDS011;52872;52.994;6.940;2023-02-08T06:38:47;40.28;;;23.08;;
66087;SDS011;52872;52.994;6.940;2023-02-08T06:41:16;41.40;;;23.20;;
66087;SDS011;52872;52.994;6.940;2023-02-08T06:43:43;41.00;;;23.45;;
66087;SDS011;52872;52.994;6.940;2023-02-08T06:46:10;36.58;;;21.58;;
66087;SDS011;52872;52.994;6.940;2023-02-08T06:48:37;42.85;;;24.15;;
66087;SDS011;52872;52.994;6.940;2023-02-08T06:51:04;44.97;;;22.40;;
66087;SDS011;52872;52.994;6.940;2023-02-08T06:53:31;40.08;;;22.33;;
66087;SDS011;52872;52.994;6.940;2023-02-08T06:55:58;38.83;;;22.65;;
66087;SDS011;52872;52.994;6.940;2023-02-08T06:58:25;37.40;;;21.70;;
66087;SDS011;52872;52.994;6.940;2023-02-08T07:00:52;41.55;;;24.35;;
66087;SDS011;52872;52.994;6.940;2023-02-08T07:03:19;42.13;;;24.35;;
66087;SDS011;52872;52.994;6.940;2023-02-08T07:05:47;39.10;;;21.55;;
66087;SDS011;52872;52.994;6.940;2023-02-08T07:08:29;35.33;;;21.85;;
66087;SDS011;52872;52.994;6.940;2023-02-08T07:10:57;42.95;;;24.27;;
66087;SDS011;52872;52.994;6.940;2023-02-08T07:13:24;39.42;;;22.65;;
66087;SDS011;52872;52.994;6.940;2023-02-08T07:15:51;44.67;;;23.25;;
66087;SDS011;52872;52.994;6.940;2023-02-08T07:18:18;44.67;;;24.75;;
66087;SDS011;52872;52.994;6.940;2023-02-08T07:20:48;39.75;;;22.92;;
66087;SDS011;52872;52.994;6.940;2023-02-08T07:23:15;40.22;;;23.35;;
66087;SDS011;52872;52.994;6.940;2023-02-08T07:25:42;40.20;;;23.40;;
66087;SDS011;52872;52.994;6.940;2023-02-08T07:28:11;40.72;;;23.60;;
66087;SDS011;52872;52.994;6.940;2023-02-08T07:30:38;38.10;;;23.15;;
66087;SDS011;52872;52.994;6.940;2023-02-08T07:33:06;39.55;;;22.25;;
66087;SDS011;52872;52.994;6.940;2023-02-08T07:35:33;42.80;;;23.48;;
66087;SDS011;52872;52.994;6.940;2023-02-08T07:38:00;32.53;;;20.35;;
66087;SDS011;52872;52.994;6.940;2023-02-08T07:40:27;33.85;;;20.48;;
66087;SDS011;52872;52.994;6.940;2023-02-08T07:42:56;37.13;;;21.65;;
66087;SDS011;52872;52.994;6.940;2023-02-08T07:45:37;34.55;;;22.17;;
66087;SDS011;52872;52.994;6.940;2023-02-08T07:48:05;34.75;;;20.35;;
66087;SDS011;52872;52.994;6.940;2023-02-08T07:50:32;30.55;;;19.40;;
66087;SDS011;52872;52.994;6.940;2023-02-08T07:52:59;37.40;;;22.45;;
66087;SDS011;52872;52.994;6.940;2023-02-08T07:55:26;34.00;;;20.25;;
66087;SDS011;52872;52.994;6.940;2023-02-08T07:57:54;34.55;;;20.90;;
66087;SDS011;52872;52.994;6.940;2023-02-08T08:00:22;33.22;;;19.95;;
66087;SDS011;52872;52.994;6.940;2023-02-08T08:02:50;30.73;;;20.20;;
66087;SDS011;52872;52.994;6.940;2023-02-08T08:05:17;33.00;;;20.73;;
66087;SDS011;52872;52.994;6.940;2023-02-08T08:07:44;29.55;;;19.60;;
66087;SDS011;52872;52.994;6.940;2023-02-08T08:10:11;31.60;;;20.05;;
66087;SDS011;52872;52.994;6.940;2023-02-08T08:12:38;31.10;;;21.02;;
66087;SDS011;52872;52.994;6.940;2023-02-08T08:15:05;32.42;;;21.90;;
66087;SDS011;52872;52.994;6.940;2023-02-08T08:17:32;32.78;;;20.50;;
66087;SDS011;52872;52.994;6.940;2023-02-08T08:19:59;33.40;;;19.52;;
66087;SDS011;52872;52.994;6.940;2023-02-08T08:22:26;31.40;;;18.88;;
66087;SDS011;52872;52.994;6.940;2023-02-08T08:24:53;32.70;;;20.45;;
66087;SDS011;52872;52.994;6.940;2023-02-08T08:27:20;34.88;;;18.92;;
66087;SDS011;52872;52.994;6.940;2023-02-08T08:29:47;36.50;;;23.08;;
66087;SDS011;52872;52.994;6.940;2023-02-08T08:32:14;38.35;;;21.65;;
66087;SDS011;52872;52.994;6.940;2023-02-08T08:34:41;35.88;;;20.63;;
66087;SDS011;52872;52.994;6.940;2023-02-08T08:37:08;33.80;;;21.73;;
66087;SDS011;52872;52.994;6.940;2023-02-08T08:39:36;35.85;;;21.25;;
66087;SDS011;52872;52.994;6.940;2023-02-08T08:42:03;36.40;;;21.70;;
66087;SDS011;52872;52.994;6.940;2023-02-08T08:44:30;31.95;;;20.60;;
66087;SDS011;52872;52.994;6.940;2023-02-08T08:46:57;29.75;;;18.27;;
66087;SDS011;52872;52.994;6.940;2023-02-08T08:49:25;35.13;;;20.52;;
66087;SDS011;52872;52.994;6.940;2023-02-08T08:51:53;36.38;;;19.52;;
66087;SDS011;52872;52.994;6.940;2023-02-08T08:54:21;32.88;;;19.88;;
66087;SDS011;52872;52.994;6.940;2023-02-08T08:56:48;31.10;;;19.92;;
66087;SDS011;52872;52.994;6.940;2023-02-08T08:59:15;32.15;;;20.23;;
66087;SDS011;52872;52.994;6.940;2023-02-08T09:01:42;33.03;;;19.02;;
66087;SDS011;52872;52.994;6.940;2023-02-08T09:04:10;29.33;;;19.60;;
66087;SDS011;52872;52.994;6.940;2023-02-08T09:06:37;32.95;;;20.38;;
66087;SDS011;52872;52.994;6.940;2023-02-08T09:09:04;28.73;;;17.50;;
66087;SDS011;52872;52.994;6.940;2023-02-08T09:11:32;31.00;;;19.58;;
66087;SDS011;52872;52.994;6.940;2023-02-08T09:14:03;30.20;;;19.88;;
66087;SDS011;52872;52.994;6.940;2023-02-08T09:16:30;33.53;;;19.48;;
66087;SDS011;52872;52.994;6.940;2023-02-08T09:19:04;31.30;;;19.90;;
66087;SDS011;52872;52.994;6.940;2023-02-08T09:21:32;30.27;;;18.58;;
66087;SDS011;52872;52.994;6.940;2023-02-08T09:24:00;31.13;;;19.73;;
66087;SDS011;52872;52.994;6.940;2023-02-08T09:26:28;27.48;;;18.38;;
66087;SDS011;52872;52.994;6.940;2023-02-08T09:28:55;34.67;;;21.17;;
66087;SDS011;52872;52.994;6.940;2023-02-08T09:31:24;35.90;;;21.48;;
66087;SDS011;52872;52.994;6.940;2023-02-08T09:33:54;30.77;;;19.15;;
66087;SDS011;52872;52.994;6.940;2023-02-08T09:36:24;24.45;;;16.75;;
66087;SDS011;52872;52.994;6.940;2023-02-08T09:39:00;28.52;;;17.88;;
66087;SDS011;52872;52.994;6.940;2023-02-08T09:41:37;31.13;;;18.90;;
66087;SDS011;52872;52.994;6.940;2023-02-08T09:46:45;29.00;;;19.05;;
66087;SDS011;52872;52.994;6.940;2023-02-08T09:49:57;30.58;;;17.77;;
66087;SDS011;52872;52.994;6.940;2023-02-08T09:52:26;25.80;;;17.80;;
66087;SDS011;52872;52.994;6.940;2023-02-08T09:54:59;26.50;;;17.13;;
66087;SDS011;52872;52.994;6.940;2023-02-08T09:57:30;28.27;;;18.08;;
66087;SDS011;52872;52.994;6.940;2023-02-08T10:00:02;25.10;;;17.40;;
66087;SDS011;52872;52.994;6.940;2023-02-08T10:02:35;24.33;;;17.40;;
66087;SDS011;52872;52.994;6.940;2023-02-08T10:05:06;25.23;;;16.88;;
66087;SDS011;52872;52.994;6.940;2023-02-08T10:07:43;26.33;;;17.65;;
66087;SDS011;52872;52.994;6.940;2023-02-08T10:11:18;28.15;;;17.90;;
66087;SDS011;52872;52.994;6.940;2023-02-08T10:13:51;23.67;;;15.63;;
66087;SDS011;52872;52.994;6.940;2023-02-08T10:19:26;27.58;;;16.98;;
66087;SDS011;52872;52.994;6.940;2023-02-08T10:22:03;25.85;;;17.05;;
66087;SDS011;52872;52.994;6.940;2023-02-08T10:27:43;24.83;;;16.92;;
66087;SDS011;52872;52.994;6.940;2023-02-08T10:33:00;22.48;;;16.50;;
66087;SDS011;52872;52.994;6.940;2023-02-08T10:35:32;25.50;;;16.98;;
66087;SDS011;52872;52.994;6.940;2023-02-08T10:40:46;22.15;;;16.42;;
66087;SDS011;52872;52.994;6.940;2023-02-08T10:43:20;24.23;;;16.27;;
66087;SDS011;52872;52.994;6.940;2023-02-08T10:51:39;26.60;;;17.17;;
66087;SDS011;52872;52.994;6.940;2023-02-08T10:54:13;21.88;;;15.20;;
66087;SDS011;52872;52.994;6.940;2023-02-08T10:59:19;21.35;;;16.33;;
66087;SDS011;52872;52.994;6.940;2023-02-08T11:01:52;21.35;;;14.10;;
66087;SDS011;52872;52.994;6.940;2023-02-08T11:04:21;20.50;;;15.10;;
66087;SDS011;52872;52.994;6.940;2023-02-08T11:06:48;22.70;;;14.82;;
66087;SDS011;52872;52.994;6.940;2023-02-08T11:09:24;20.55;;;14.63;;
66087;SDS011;52872;52.994;6.940;2023-02-08T11:11:52;19.63;;;14.57;;
66087;SDS011;52872;52.994;6.940;2023-02-08T11:14:27;22.70;;;15.13;;
66087;SDS011;52872;52.994;6.940;2023-02-08T11:17:25;18.98;;;14.07;;
66087;SDS011;52872;52.994;6.940;2023-02-08T11:19:55;19.02;;;13.48;;
66087;SDS011;52872;52.994;6.940;2023-02-08T11:22:25;19.73;;;13.35;;
66087;SDS011;52872;52.994;6.940;2023-02-08T11:25:00;17.13;;;12.85;;
66087;SDS011;52872;52.994;6.940;2023-02-08T11:27:32;19.23;;;13.88;;
66087;SDS011;52872;52.994;6.940;2023-02-08T11:30:22;17.50;;;13.85;;
66087;SDS011;52872;52.994;6.940;2023-02-08T11:33:08;16.80;;;11.52;;
66087;SDS011;52872;52.994;6.940;2023-02-08T11:38:25;19.83;;;13.55;;
66087;SDS011;52872;52.994;6.940;2023-02-08T11:40:54;14.27;;;10.90;;
66087;SDS011;52872;52.994;6.940;2023-02-08T11:43:28;18.50;;;12.75;;
66087;SDS011;52872;52.994;6.940;2023-02-08T11:45:57;17.47;;;12.50;;
66087;SDS011;52872;52.994;6.940;2023-02-08T11:48:42;17.60;;;12.10;;
66087;SDS011;52872;52.994;6.940;2023-02-08T11:51:21;16.80;;;12.65;;
66087;SDS011;52872;52.994;6.940;2023-02-08T11:53:57;16.88;;;12.57;;
66087;SDS011;52872;52.994;6.940;2023-02-08T11:56:27;17.13;;;12.18;;
66087;SDS011;52872;52.994;6.940;2023-02-08T11:58:58;16.52;;;12.38;;
66087;SDS011;52872;52.994;6.940;2023-02-08T12:01:31;18.17;;;13.10;;
66087;SDS011;52872;52.994;6.940;2023-02-08T12:04:04;17.85;;;11.35;;
66087;SDS011;52872;52.994;6.940;2023-02-08T12:06:46;19.33;;;12.70;;
66087;SDS011;52872;52.994;6.940;2023-02-08T12:12:43;15.60;;;11.35;;
66087;SDS011;52872;52.994;6.940;2023-02-08T12:21:06;14.77;;;10.45;;
66087;SDS011;52872;52.994;6.940;2023-02-08T12:23:51;13.57;;;10.68;;
66087;SDS011;52872;52.994;6.940;2023-02-08T12:41:46;12.40;;;9.43;;
66087;SDS011;52872;52.994;6.940;2023-02-08T12:44:43;12.40;;;8.93;;
66087;SDS011;52872;52.994;6.940;2023-02-08T12:50:40;9.98;;;8.43;;
66087;SDS011;52872;52.994;6.940;2023-02-08T12:53:21;13.55;;;9.50;;
66087;SDS011;52872;52.994;6.940;2023-02-08T12:56:05;13.68;;;9.65;;
66087;SDS011;52872;52.994;6.940;2023-02-08T12:58:39;11.30;;;9.25;;
66087;SDS011;52872;52.994;6.940;2023-02-08T13:03:50;10.13;;;8.75;;
66087;SDS011;52872;52.994;6.940;2023-02-08T13:06:44;10.35;;;8.70;;
66087;SDS011;52872;52.994;6.940;2023-02-08T13:09:33;10.20;;;7.95;;
66087;SDS011;52872;52.994;6.940;2023-02-08T13:12:09;11.88;;;9.05;;
66087;SDS011;52872;52.994;6.940;2023-02-08T13:17:19;9.65;;;7.55;;
66087;SDS011;52872;52.994;6.940;2023-02-08T13:20:03;11.73;;;8.85;;
66087;SDS011;52872;52.994;6.940;2023-02-08T13:22:40;11.35;;;8.48;;
66087;SDS011;52872;52.994;6.940;2023-02-08T13:25:15;11.00;;;8.63;;
66087;SDS011;52872;52.994;6.940;2023-02-08T13:27:54;9.93;;;8.48;;
66087;SDS011;52872;52.994;6.940;2023-02-08T13:30:26;10.45;;;7.60;;
66087;SDS011;52872;52.994;6.940;2023-02-08T13:32:53;9.93;;;7.82;;
66087;SDS011;52872;52.994;6.940;2023-02-08T13:35:26;9.07;;;7.47;;
66087;SDS011;52872;52.994;6.940;2023-02-08T13:37:58;8.43;;;6.78;;
66087;SDS011;52872;52.994;6.940;2023-02-08T13:45:38;8.75;;;6.70;;
66087;SDS011;52872;52.994;6.940;2023-02-08T13:48:11;8.93;;;6.57;;
66087;SDS011;52872;52.994;6.940;2023-02-08T13:56:08;9.45;;;6.97;;
66087;SDS011;52872;52.994;6.940;2023-02-08T14:01:17;7.07;;;6.03;;
66087;SDS011;52872;52.994;6.940;2023-02-08T14:11:47;6.93;;;6.13;;
66087;SDS011;52872;52.994;6.940;2023-02-08T14:17:06;7.65;;;6.05;;
66087;SDS011;52872;52.994;6.940;2023-02-08T14:19:35;7.30;;;6.03;;
66087;SDS011;52872;52.994;6.940;2023-02-08T14:24:47;9.40;;;6.47;;
66087;SDS011;52872;52.994;6.940;2023-02-08T14:27:41;8.23;;;5.55;;
66087;SDS011;52872;52.994;6.940;2023-02-08T14:30:35;8.90;;;5.93;;
66087;SDS011;52872;52.994;6.940;2023-02-08T14:35:33;6.90;;;5.70;;
66087;SDS011;52872;52.994;6.940;2023-02-08T14:40:49;7.55;;;5.30;;
66087;SDS011;52872;52.994;6.940;2023-02-08T14:45:56;7.93;;;6.43;;
66087;SDS011;52872;52.994;6.940;2023-02-08T14:48:36;9.63;;;6.25;;
66087;SDS011;52872;52.994;6.940;2023-02-08T14:51:17;6.47;;;5.35;;
66087;SDS011;52872;52.994;6.940;2023-02-08T14:53:51;7.68;;;6.07;;
66087;SDS011;52872;52.994;6.940;2023-02-08T14:56:27;9.25;;;6.18;;
66087;SDS011;52872;52.994;6.940;2023-02-08T15:01:42;6.95;;;5.68;;
66087;SDS011;52872;52.994;6.940;2023-02-08T15:04:13;14.63;;;9.55;;
66087;SDS011;52872;52.994;6.940;2023-02-08T15:09:45;86.07;;;53.20;;
66087;SDS011;52872;52.994;6.940;2023-02-08T15:15:00;19.52;;;17.48;;
66087;SDS011;52872;52.994;6.940;2023-02-08T15:19:59;6.75;;;5.30;;
66087;SDS011;52872;52.994;6.940;2023-02-08T15:22:33;13.80;;;12.48;;
66087;SDS011;52872;52.994;6.940;2023-02-08T15:25:22;8.45;;;5.82;;
66087;SDS011;52872;52.994;6.940;2023-02-08T15:27:52;9.25;;;7.72;;
66087;SDS011;52872;52.994;6.940;2023-02-08T15:30:33;10.02;;;7.88;;
66087;SDS011;52872;52.994;6.940;2023-02-08T15:33:06;8.23;;;6.20;;
66087;SDS011;52872;52.994;6.940;2023-02-08T15:35:35;8.95;;;7.03;;
66087;SDS011;52872;52.994;6.940;2023-02-08T15:38:02;7.40;;;6.28;;
66087;SDS011;52872;52.994;6.940;2023-02-08T15:40:31;9.10;;;8.05;;
66087;SDS011;52872;52.994;6.940;2023-02-08T15:43:09;10.50;;;9.50;;
66087;SDS011;52872;52.994;6.940;2023-02-08T15:45:38;15.27;;;13.73;;
66087;SDS011;52872;52.994;6.940;2023-02-08T15:48:05;10.45;;;7.40;;
66087;SDS011;52872;52.994;6.940;2023-02-08T15:50:33;7.10;;;6.50;;
66087;SDS011;52872;52.994;6.940;2023-02-08T15:53:02;11.63;;;10.55;;
66087;SDS011;52872;52.994;6.940;2023-02-08T15:55:35;10.55;;;7.80;;
66087;SDS011;52872;52.994;6.940;2023-02-08T16:00:56;11.57;;;10.40;;
66087;SDS011;52872;52.994;6.940;2023-02-08T16:03:25;8.38;;;7.50;;
66087;SDS011;52872;52.994;6.940;2023-02-08T16:05:55;15.40;;;10.65;;
66087;SDS011;52872;52.994;6.940;2023-02-08T16:08:25;16.98;;;12.65;;
66087;SDS011;52872;52.994;6.940;2023-02-08T16:10:59;17.38;;;15.50;;
66087;SDS011;52872;52.994;6.940;2023-02-08T16:13:29;17.70;;;15.80;;
66087;SDS011;52872;52.994;6.940;2023-02-08T16:18:47;31.80;;;26.35;;
66087;SDS011;52872;52.994;6.940;2023-02-08T16:23:54;13.82;;;9.13;;
66087;SDS011;52872;52.994;6.940;2023-02-08T16:26:27;24.92;;;22.55;;
66087;SDS011;52872;52.994;6.940;2023-02-08T16:29:00;19.38;;;17.05;;
66087;SDS011;52872;52.994;6.940;2023-02-08T16:31:30;27.75;;;24.85;;
66087;SDS011;52872;52.994;6.940;2023-02-08T16:34:04;9.50;;;7.78;;
66087;SDS011;52872;52.994;6.940;2023-02-08T16:36:38;37.00;;;30.45;;
66087;SDS011;52872;52.994;6.940;2023-02-08T16:44:39;202.07;;;117.00;;
66087;SDS011;52872;52.994;6.940;2023-02-08T16:47:51;255.15;;;143.63;;
66087;SDS011;52872;52.994;6.940;2023-02-08T16:50:24;52.67;;;36.42;;
66087;SDS011;52872;52.994;6.940;2023-02-08T16:52:54;51.15;;;35.28;;
66087;SDS011;52872;52.994;6.940;2023-02-08T16:55:26;34.70;;;23.05;;
66087;SDS011;52872;52.994;6.940;2023-02-08T16:57:57;22.90;;;18.33;;
66087;SDS011;52872;52.994;6.940;2023-02-08T17:00:27;31.20;;;24.10;;
66087;SDS011;52872;52.994;6.940;2023-02-08T17:02:56;21.65;;;16.60;;
66087;SDS011;52872;52.994;6.940;2023-02-08T17:05:28;15.15;;;13.60;;
66087;SDS011;52872;52.994;6.940;2023-02-08T17:07:57;25.08;;;22.60;;
66087;SDS011;52872;52.994;6.940;2023-02-08T17:10:26;9.75;;;8.75;;
66087;SDS011;52872;52.994;6.940;2023-02-08T17:12:56;11.60;;;7.00;;
66087;SDS011;52872;52.994;6.940;2023-02-08T17:15:47;11.55;;;10.27;;
66087;SDS011;52872;52.994;6.940;2023-02-08T17:18:16;14.23;;;7.65;;
66087;SDS011;52872;52.994;6.940;2023-02-08T17:20:43;9.98;;;8.48;;
66087;SDS011;52872;52.994;6.940;2023-02-08T17:23:10;7.63;;;6.00;;
66087;SDS011;52872;52.994;6.940;2023-02-08T17:25:38;8.65;;;6.72;;
66087;SDS011;52872;52.994;6.940;2023-02-08T17:28:07;9.98;;;7.47;;
66087;SDS011;52872;52.994;6.940;2023-02-08T17:30:41;8.90;;;6.60;;